sensor_id;sensor_type;location;lat;lon;timestamp;temperature;humidity
14884;DHT22;7534;50.762;7.000;2023-04-24T00:00:34;13.00;99.90
14884;DHT22;7534;50.762;7.000;2023-04-24T00:03:01;13.00;99.90
14884;DHT22;7534;50.762;7.000;2023-04-24T00:05:28;13.00;99.90
14884;DHT22;7534;50.762;7.000;2023-04-24T00:07:53;13.00;99.90
14884;DHT22;7534;50.762;7.000;2023-04-24T00:10:20;12.80;99.90
14884;DHT22;7534;50.762;7.000;2023-04-24T00:12:46;12.70;99.90
14884;DHT22;7534;50.762;7.000;2023-04-24T00:15:12;12.60;99.90
14884;DHT22;7534;50.762;7.000;2023-04-24T00:17:53;12.50;99.90
14884;DHT22;7534;50.762;7.000;2023-04-24T00:20:19;12.30;99.90
14884;DHT22;7534;50.762;7.000;2023-04-24T00:22:44;12.30;99.90
14884;DHT22;7534;50.762;7.000;2023-04-24T00:25:10;12.30;99.90
14884;DHT22;7534;50.762;7.000;2023-04-24T00:27:35;12.20;99.90
14884;DHT22;7534;50.762;7.000;2023-04-24T00:30:02;12.10;99.90
14884;DHT22;7534;50.762;7.000;2023-04-24T00:32:28;12.20;99.90
14884;DHT22;7534;50.762;7.000;2023-04-24T00:34:55;12.30;99.90
14884;DHT22;7534;50.762;7.000;2023-04-24T00:37:20;12.30;99.90
14884;DHT22;7534;50.762;7.000;2023-04-24T00:39:46;12.40;99.90
14884;DHT22;7534;50.762;7.000;2023-04-24T00:42:12;12.50;99.90
14884;DHT22;7534;50.762;7.000;2023-04-24T00:44:38;12.50;99.90
14884;DHT22;7534;50.762;7.000;2023-04-24T00:47:04;12.60;99.90
14884;DHT22;7534;50.762;7.000;2023-04-24T00:49:30;12.70;99.90
14884;DHT22;7534;50.762;7.000;2023-04-24T00:51:56;12.70;99.90
14884;DHT22;7534;50.762;7.000;2023-04-24T00:54:22;12.60;99.90
14884;DHT22;7534;50.762;7.000;2023-04-24T00:56:48;12.70;99.90
14884;DHT22;7534;50.762;7.000;2023-04-24T00:59:16;12.80;99.90
14884;DHT22;7534;50.762;7.000;2023-04-24T01:01:43;12.80;99.90
14884;DHT22;7534;50.762;7.000;2023-04-24T01:04:11;12.90;99.90
14884;DHT22;7534;50.762;7.000;2023-04-24T01:06:41;12.80;99.90
14884;DHT22;7534;50.762;7.000;2023-04-24T01:09:10;12.90;99.90
14884;DHT22;7534;50.762;7.000;2023-04-24T01:11:37;12.90;99.90
14884;DHT22;7534;50.762;7.000;2023-04-24T01:14:06;12.90;99.90
14884;DHT22;7534;50.762;7.000;2023-04-24T01:16:32;12.90;99.90
14884;DHT22;7534;50.762;7.000;2023-04-24T01:18:57;12.90;99.90
14884;DHT22;7534;50.762;7.000;2023-04-24T01:21:23;12.90;99.90
14884;DHT22;7534;50.762;7.000;2023-04-24T01:23:53;12.60;99.90
14884;DHT22;7534;50.762;7.000;2023-04-24T01:26:19;12.60;99.90
14884;DHT22;7534;50.762;7.000;2023-04-24T01:28:46;12.60;99.90
14884;DHT22;7534;50.762;7.000;2023-04-24T01:31:14;12.60;99.90
14884;DHT22;7534;50.762;7.000;2023-04-24T01:33:41;12.60;99.90
14884;DHT22;7534;50.762;7.000;2023-04-24T01:36:12;12.60;99.90
14884;DHT22;7534;50.762;7.000;2023-04-24T01:38:39;12.60;99.90
14884;DHT22;7534;50.762;7.000;2023-04-24T01:41:04;12.60;99.90
14884;DHT22;7534;50.762;7.000;2023-04-24T01:43:30;12.50;99.20
14884;DHT22;7534;50.762;7.000;2023-04-24T01:45:56;12.50;99.70
14884;DHT22;7534;50.762;7.000;2023-04-24T01:48:22;12.40;99.20
14884;DHT22;7534;50.762;7.000;2023-04-24T01:50:48;12.50;98.60
14884;DHT22;7534;50.762;7.000;2023-04-24T01:53:13;12.30;98.50
14884;DHT22;7534;50.762;7.000;2023-04-24T01:55:40;12.30;98.40
14884;DHT22;7534;50.762;7.000;2023-04-24T01:58:06;12.20;98.70
14884;DHT22;7534;50.762;7.000;2023-04-24T02:00:33;12.10;98.70
14884;DHT22;7534;50.762;7.000;2023-04-24T02:02:58;12.00;98.40
14884;DHT22;7534;50.762;7.000;2023-04-24T02:05:24;11.90;98.80
14884;DHT22;7534;50.762;7.000;2023-04-24T02:07:50;11.80;98.60
14884;DHT22;7534;50.762;7.000;2023-04-24T02:10:15;11.70;98.80
14884;DHT22;7534;50.762;7.000;2023-04-24T02:12:41;11.60;99.30
14884;DHT22;7534;50.762;7.000;2023-04-24T02:15:07;11.60;99.50
14884;DHT22;7534;50.762;7.000;2023-04-24T02:17:33;11.60;99.40
14884;DHT22;7534;50.762;7.000;2023-04-24T02:19:58;11.40;98.50
14884;DHT22;7534;50.762;7.000;2023-04-24T02:22:24;11.20;98.60
14884;DHT22;7534;50.762;7.000;2023-04-24T02:24:50;11.00;98.70
14884;DHT22;7534;50.762;7.000;2023-04-24T02:27:15;10.80;98.80
14884;DHT22;7534;50.762;7.000;2023-04-24T02:29:41;10.80;98.70
14884;DHT22;7534;50.762;7.000;2023-04-24T02:32:07;10.70;99.10
14884;DHT22;7534;50.762;7.000;2023-04-24T02:34:36;10.50;99.00
14884;DHT22;7534;50.762;7.000;2023-04-24T02:37:02;10.50;99.60
14884;DHT22;7534;50.762;7.000;2023-04-24T02:39:27;10.30;99.70
14884;DHT22;7534;50.762;7.000;2023-04-24T02:41:53;10.30;99.90
14884;DHT22;7534;50.762;7.000;2023-04-24T02:44:19;10.10;99.90
14884;DHT22;7534;50.762;7.000;2023-04-24T02:46:44;10.00;99.90
14884;DHT22;7534;50.762;7.000;2023-04-24T02:49:11;9.90;99.90
14884;DHT22;7534;50.762;7.000;2023-04-24T02:51:37;9.90;99.90
14884;DHT22;7534;50.762;7.000;2023-04-24T02:54:06;9.90;99.90
14884;DHT22;7534;50.762;7.000;2023-04-24T02:56:33;9.90;99.90
14884;DHT22;7534;50.762;7.000;2023-04-24T02:58:59;9.70;99.90
14884;DHT22;7534;50.762;7.000;2023-04-24T03:01:25;9.70;99.90
14884;DHT22;7534;50.762;7.000;2023-04-24T03:03:51;9.70;99.90
14884;DHT22;7534;50.762;7.000;2023-04-24T03:06:16;9.70;99.90
14884;DHT22;7534;50.762;7.000;2023-04-24T03:08:42;9.70;99.90
14884;DHT22;7534;50.762;7.000;2023-04-24T03:11:08;9.70;99.90
14884;DHT22;7534;50.762;7.000;2023-04-24T03:13:33;9.60;99.90
14884;DHT22;7534;50.762;7.000;2023-04-24T03:15:59;9.60;99.90
14884;DHT22;7534;50.762;7.000;2023-04-24T03:18:24;9.60;99.90
14884;DHT22;7534;50.762;7.000;2023-04-24T03:20:51;9.60;99.90
14884;DHT22;7534;50.762;7.000;2023-04-24T03:23:16;9.60;99.90
14884;DHT22;7534;50.762;7.000;2023-04-24T03:25:42;9.60;99.90
14884;DHT22;7534;50.762;7.000;2023-04-24T03:28:08;9.60;99.90
14884;DHT22;7534;50.762;7.000;2023-04-24T03:30:34;9.50;99.90
14884;DHT22;7534;50.762;7.000;2023-04-24T03:33:00;9.50;99.90
14884;DHT22;7534;50.762;7.000;2023-04-24T03:35:25;9.50;99.90
14884;DHT22;7534;50.762;7.000;2023-04-24T03:37:51;9.40;99.90
14884;DHT22;7534;50.762;7.000;2023-04-24T03:40:17;9.50;99.90
14884;DHT22;7534;50.762;7.000;2023-04-24T03:42:42;9.60;99.90
14884;DHT22;7534;50.762;7.000;2023-04-24T03:45:08;9.70;99.90
14884;DHT22;7534;50.762;7.000;2023-04-24T03:47:35;9.60;99.90
14884;DHT22;7534;50.762;7.000;2023-04-24T03:50:01;9.50;99.90
14884;DHT22;7534;50.762;7.000;2023-04-24T03:52:27;9.40;99.90
14884;DHT22;7534;50.762;7.000;2023-04-24T03:54:52;9.40;99.90
14884;DHT22;7534;50.762;7.000;2023-04-24T03:57:18;9.40;99.90
14884;DHT22;7534;50.762;7.000;2023-04-24T03:59:44;9.30;99.90
14884;DHT22;7534;50.762;7.000;2023-04-24T04:02:09;9.40;99.90
14884;DHT22;7534;50.762;7.000;2023-04-24T04:04:35;9.40;99.90
14884;DHT22;7534;50.762;7.000;2023-04-24T04:07:01;9.30;99.90
14884;DHT22;7534;50.762;7.000;2023-04-24T04:09:28;9.30;99.90
14884;DHT22;7534;50.762;7.000;2023-04-24T04:11:54;9.40;99.90
14884;DHT22;7534;50.762;7.000;2023-04-24T04:14:21;9.40;99.90
14884;DHT22;7534;50.762;7.000;2023-04-24T04:16:47;9.40;99.90
14884;DHT22;7534;50.762;7.000;2023-04-24T04:19:12;9.30;99.90
14884;DHT22;7534;50.762;7.000;2023-04-24T04:21:38;9.40;99.90
14884;DHT22;7534;50.762;7.000;2023-04-24T04:24:04;9.30;99.90
14884;DHT22;7534;50.762;7.000;2023-04-24T04:26:31;9.30;99.90
14884;DHT22;7534;50.762;7.000;2023-04-24T04:29:01;9.30;99.90
14884;DHT22;7534;50.762;7.000;2023-04-24T04:31:27;9.30;99.90
14884;DHT22;7534;50.762;7.000;2023-04-24T04:33:53;9.40;99.90
14884;DHT22;7534;50.762;7.000;2023-04-24T04:36:18;9.50;99.90
14884;DHT22;7534;50.762;7.000;2023-04-24T04:38:44;9.50;99.90
14884;DHT22;7534;50.762;7.000;2023-04-24T04:41:10;9.60;99.90
14884;DHT22;7534;50.762;7.000;2023-04-24T04:43:36;9.70;99.90
14884;DHT22;7534;50.762;7.000;2023-04-24T04:46:03;9.80;99.90
14884;DHT22;7534;50.762;7.000;2023-04-24T04:48:29;9.80;99.90
14884;DHT22;7534;50.762;7.000;2023-04-24T04:50:57;10.00;99.90
14884;DHT22;7534;50.762;7.000;2023-04-24T04:53:23;10.20;99.90
14884;DHT22;7534;50.762;7.000;2023-04-24T04:55:48;10.10;99.90
14884;DHT22;7534;50.762;7.000;2023-04-24T04:58:14;10.10;99.90
14884;DHT22;7534;50.762;7.000;2023-04-24T05:00:40;10.20;99.90
14884;DHT22;7534;50.762;7.000;2023-04-24T05:03:06;10.20;99.60
14884;DHT22;7534;50.762;7.000;2023-04-24T05:05:32;10.20;99.90
14884;DHT22;7534;50.762;7.000;2023-04-24T05:07:57;10.20;99.80
14884;DHT22;7534;50.762;7.000;2023-04-24T05:10:23;10.20;99.60
14884;DHT22;7534;50.762;7.000;2023-04-24T05:12:49;10.20;99.90
14884;DHT22;7534;50.762;7.000;2023-04-24T05:15:15;10.10;99.90
14884;DHT22;7534;50.762;7.000;2023-04-24T05:17:40;10.10;99.90
14884;DHT22;7534;50.762;7.000;2023-04-24T05:20:06;10.20;99.90
14884;DHT22;7534;50.762;7.000;2023-04-24T05:22:32;10.40;99.70
14884;DHT22;7534;50.762;7.000;2023-04-24T05:24:58;10.50;99.90
14884;DHT22;7534;50.762;7.000;2023-04-24T05:27:24;10.60;99.60
14884;DHT22;7534;50.762;7.000;2023-04-24T05:29:50;10.90;99.40
14884;DHT22;7534;50.762;7.000;2023-04-24T05:32:16;11.00;98.70
14884;DHT22;7534;50.762;7.000;2023-04-24T05:34:41;11.00;98.40
14884;DHT22;7534;50.762;7.000;2023-04-24T05:37:07;11.00;98.40
14884;DHT22;7534;50.762;7.000;2023-04-24T05:39:35;11.00;98.50
14884;DHT22;7534;50.762;7.000;2023-04-24T05:42:01;11.10;98.30
14884;DHT22;7534;50.762;7.000;2023-04-24T05:44:28;11.20;98.40
14884;DHT22;7534;50.762;7.000;2023-04-24T05:46:54;11.20;98.30
14884;DHT22;7534;50.762;7.000;2023-04-24T05:49:21;11.30;98.30
14884;DHT22;7534;50.762;7.000;2023-04-24T05:51:47;11.50;97.90
14884;DHT22;7534;50.762;7.000;2023-04-24T05:54:12;11.50;98.10
14884;DHT22;7534;50.762;7.000;2023-04-24T05:56:39;11.50;97.90
14884;DHT22;7534;50.762;7.000;2023-04-24T05:59:05;11.60;98.00
14884;DHT22;7534;50.762;7.000;2023-04-24T06:01:31;11.70;98.00
14884;DHT22;7534;50.762;7.000;2023-04-24T06:03:57;11.70;98.20
14884;DHT22;7534;50.762;7.000;2023-04-24T06:06:23;11.70;99.10
14884;DHT22;7534;50.762;7.000;2023-04-24T06:08:49;11.60;99.90
14884;DHT22;7534;50.762;7.000;2023-04-24T06:11:15;11.40;99.90
14884;DHT22;7534;50.762;7.000;2023-04-24T06:13:41;11.50;99.90
14884;DHT22;7534;50.762;7.000;2023-04-24T06:16:07;11.50;99.90
14884;DHT22;7534;50.762;7.000;2023-04-24T06:18:32;11.40;99.90
14884;DHT22;7534;50.762;7.000;2023-04-24T06:20:58;11.30;99.90
14884;DHT22;7534;50.762;7.000;2023-04-24T06:23:24;11.30;99.90
14884;DHT22;7534;50.762;7.000;2023-04-24T06:25:50;11.30;99.90
14884;DHT22;7534;50.762;7.000;2023-04-24T06:28:16;11.30;99.90
14884;DHT22;7534;50.762;7.000;2023-04-24T06:30:42;11.50;99.90
14884;DHT22;7534;50.762;7.000;2023-04-24T06:33:08;11.50;99.90
14884;DHT22;7534;50.762;7.000;2023-04-24T06:35:34;11.60;99.90
14884;DHT22;7534;50.762;7.000;2023-04-24T06:38:01;11.60;99.90
14884;DHT22;7534;50.762;7.000;2023-04-24T06:40:26;11.60;99.90
14884;DHT22;7534;50.762;7.000;2023-04-24T06:42:53;11.60;99.90
14884;DHT22;7534;50.762;7.000;2023-04-24T06:45:19;11.50;99.90
14884;DHT22;7534;50.762;7.000;2023-04-24T06:47:44;11.50;99.90
14884;DHT22;7534;50.762;7.000;2023-04-24T06:50:10;11.30;99.90
14884;DHT22;7534;50.762;7.000;2023-04-24T06:52:36;11.20;99.90
14884;DHT22;7534;50.762;7.000;2023-04-24T06:55:03;11.20;99.90
14884;DHT22;7534;50.762;7.000;2023-04-24T06:57:29;11.20;99.90
14884;DHT22;7534;50.762;7.000;2023-04-24T06:59:55;11.00;99.90
14884;DHT22;7534;50.762;7.000;2023-04-24T07:02:21;11.00;99.90
14884;DHT22;7534;50.762;7.000;2023-04-24T07:04:47;10.90;99.90
14884;DHT22;7534;50.762;7.000;2023-04-24T07:07:13;10.90;99.90
14884;DHT22;7534;50.762;7.000;2023-04-24T07:09:42;10.90;99.90
14884;DHT22;7534;50.762;7.000;2023-04-24T07:12:09;11.00;99.90
14884;DHT22;7534;50.762;7.000;2023-04-24T07:14:36;11.00;99.90
14884;DHT22;7534;50.762;7.000;2023-04-24T07:17:03;11.20;99.90
14884;DHT22;7534;50.762;7.000;2023-04-24T07:19:33;10.90;99.90
14884;DHT22;7534;50.762;7.000;2023-04-24T07:22:02;10.90;99.90
14884;DHT22;7534;50.762;7.000;2023-04-24T07:24:29;10.80;99.90
14884;DHT22;7534;50.762;7.000;2023-04-24T07:26:55;10.80;99.90
14884;DHT22;7534;50.762;7.000;2023-04-24T07:29:21;10.70;99.90
14884;DHT22;7534;50.762;7.000;2023-04-24T07:31:46;10.70;99.90
14884;DHT22;7534;50.762;7.000;2023-04-24T07:34:13;10.60;99.90
14884;DHT22;7534;50.762;7.000;2023-04-24T07:36:40;10.70;99.90
14884;DHT22;7534;50.762;7.000;2023-04-24T07:39:06;10.50;99.90
14884;DHT22;7534;50.762;7.000;2023-04-24T07:41:33;10.50;99.90
14884;DHT22;7534;50.762;7.000;2023-04-24T07:43:59;10.50;99.90
14884;DHT22;7534;50.762;7.000;2023-04-24T07:46:24;10.40;99.90
14884;DHT22;7534;50.762;7.000;2023-04-24T07:48:50;10.40;99.90
14884;DHT22;7534;50.762;7.000;2023-04-24T07:51:16;10.40;99.90
14884;DHT22;7534;50.762;7.000;2023-04-24T07:53:42;10.40;99.90
14884;DHT22;7534;50.762;7.000;2023-04-24T07:56:08;10.40;99.90
14884;DHT22;7534;50.762;7.000;2023-04-24T07:58:34;10.40;99.90
14884;DHT22;7534;50.762;7.000;2023-04-24T08:01:00;10.40;99.90
14884;DHT22;7534;50.762;7.000;2023-04-24T08:03:26;10.40;99.90
14884;DHT22;7534;50.762;7.000;2023-04-24T08:05:51;10.30;99.90
14884;DHT22;7534;50.762;7.000;2023-04-24T08:08:18;10.20;99.90
14884;DHT22;7534;50.762;7.000;2023-04-24T08:10:46;10.00;99.90
14884;DHT22;7534;50.762;7.000;2023-04-24T08:13:12;9.80;99.90
14884;DHT22;7534;50.762;7.000;2023-04-24T08:15:39;9.70;99.90
14884;DHT22;7534;50.762;7.000;2023-04-24T08:18:04;9.70;99.90
14884;DHT22;7534;50.762;7.000;2023-04-24T08:20:30;9.60;99.90
14884;DHT22;7534;50.762;7.000;2023-04-24T08:22:56;9.70;99.90
14884;DHT22;7534;50.762;7.000;2023-04-24T08:25:22;9.80;99.90
14884;DHT22;7534;50.762;7.000;2023-04-24T08:27:50;9.90;99.90
14884;DHT22;7534;50.762;7.000;2023-04-24T08:30:16;9.90;99.90
14884;DHT22;7534;50.762;7.000;2023-04-24T08:32:41;9.80;99.90
14884;DHT22;7534;50.762;7.000;2023-04-24T08:35:08;9.60;99.90
14884;DHT22;7534;50.762;7.000;2023-04-24T08:37:34;9.40;99.90
14884;DHT22;7534;50.762;7.000;2023-04-24T08:40:05;9.20;99.90
14884;DHT22;7534;50.762;7.000;2023-04-24T08:42:37;9.20;99.90
14884;DHT22;7534;50.762;7.000;2023-04-24T08:45:03;9.00;99.90
14884;DHT22;7534;50.762;7.000;2023-04-24T08:49:59;8.90;99.90
14884;DHT22;7534;50.762;7.000;2023-04-24T08:52:28;8.90;99.90
14884;DHT22;7534;50.762;7.000;2023-04-24T08:54:54;8.90;99.90
14884;DHT22;7534;50.762;7.000;2023-04-24T08:57:22;8.90;99.90
14884;DHT22;7534;50.762;7.000;2023-04-24T08:59:48;8.90;99.90
14884;DHT22;7534;50.762;7.000;2023-04-24T09:02:14;8.90;99.90
14884;DHT22;7534;50.762;7.000;2023-04-24T09:04:43;8.90;99.90
14884;DHT22;7534;50.762;7.000;2023-04-24T09:07:12;9.00;99.90
14884;DHT22;7534;50.762;7.000;2023-04-24T09:09:40;9.00;99.90
14884;DHT22;7534;50.762;7.000;2023-04-24T09:12:07;9.10;99.90
14884;DHT22;7534;50.762;7.000;2023-04-24T09:14:36;9.10;99.90
14884;DHT22;7534;50.762;7.000;2023-04-24T09:17:06;9.10;99.90
14884;DHT22;7534;50.762;7.000;2023-04-24T09:19:32;9.10;99.90
14884;DHT22;7534;50.762;7.000;2023-04-24T09:21:57;9.10;99.90
14884;DHT22;7534;50.762;7.000;2023-04-24T09:24:23;9.00;99.90
14884;DHT22;7534;50.762;7.000;2023-04-24T09:26:56;8.90;99.90
14884;DHT22;7534;50.762;7.000;2023-04-24T09:29:24;9.00;99.90
14884;DHT22;7534;50.762;7.000;2023-04-24T09:31:50;9.10;99.90
14884;DHT22;7534;50.762;7.000;2023-04-24T09:34:24;9.10;99.90
14884;DHT22;7534;50.762;7.000;2023-04-24T09:36:52;9.00;99.90
14884;DHT22;7534;50.762;7.000;2023-04-24T09:39:19;9.00;99.90
14884;DHT22;7534;50.762;7.000;2023-04-24T09:41:55;9.10;99.90
14884;DHT22;7534;50.762;7.000;2023-04-24T09:44:27;9.20;99.90
14884;DHT22;7534;50.762;7.000;2023-04-24T09:47:09;9.40;99.90
14884;DHT22;7534;50.762;7.000;2023-04-24T09:49:41;9.60;99.90
14884;DHT22;7534;50.762;7.000;2023-04-24T09:52:11;9.80;99.90
14884;DHT22;7534;50.762;7.000;2023-04-24T09:54:38;9.90;99.90
14884;DHT22;7534;50.762;7.000;2023-04-24T09:57:04;10.10;99.90
14884;DHT22;7534;50.762;7.000;2023-04-24T09:59:30;9.90;99.90
14884;DHT22;7534;50.762;7.000;2023-04-24T10:01:56;10.10;99.90
14884;DHT22;7534;50.762;7.000;2023-04-24T10:04:25;10.10;99.90
14884;DHT22;7534;50.762;7.000;2023-04-24T10:06:54;10.30;99.90
14884;DHT22;7534;50.762;7.000;2023-04-24T10:09:24;10.50;99.90
14884;DHT22;7534;50.762;7.000;2023-04-24T10:11:54;10.40;99.90
14884;DHT22;7534;50.762;7.000;2023-04-24T10:14:24;10.50;99.90
14884;DHT22;7534;50.762;7.000;2023-04-24T10:16:53;10.50;99.90
14884;DHT22;7534;50.762;7.000;2023-04-24T10:19:25;10.30;99.90
14884;DHT22;7534;50.762;7.000;2023-04-24T10:21:52;10.30;99.90
14884;DHT22;7534;50.762;7.000;2023-04-24T10:24:19;10.30;99.90
14884;DHT22;7534;50.762;7.000;2023-04-24T10:26:48;10.50;99.90
14884;DHT22;7534;50.762;7.000;2023-04-24T10:29:17;10.90;99.90
14884;DHT22;7534;50.762;7.000;2023-04-24T10:49:28;11.70;99.90
14884;DHT22;7534;50.762;7.000;2023-04-24T10:52:00;11.60;99.90
14884;DHT22;7534;50.762;7.000;2023-04-24T10:54:45;12.00;99.90
14884;DHT22;7534;50.762;7.000;2023-04-24T10:59:44;12.40;99.90
14884;DHT22;7534;50.762;7.000;2023-04-24T11:02:11;12.50;99.90
14884;DHT22;7534;50.762;7.000;2023-04-24T11:04:41;12.50;99.90
14884;DHT22;7534;50.762;7.000;2023-04-24T11:07:09;12.60;99.90
14884;DHT22;7534;50.762;7.000;2023-04-24T11:09:36;12.40;99.90
14884;DHT22;7534;50.762;7.000;2023-04-24T11:12:10;12.00;99.90
14884;DHT22;7534;50.762;7.000;2023-04-24T11:17:31;12.70;99.90
14884;DHT22;7534;50.762;7.000;2023-04-24T11:20:10;13.10;99.90
14884;DHT22;7534;50.762;7.000;2023-04-24T11:22:38;13.40;99.90
14884;DHT22;7534;50.762;7.000;2023-04-24T11:25:09;13.60;99.90
14884;DHT22;7534;50.762;7.000;2023-04-24T11:27:44;13.90;99.90
14884;DHT22;7534;50.762;7.000;2023-04-24T11:30:11;14.30;99.90
14884;DHT22;7534;50.762;7.000;2023-04-24T11:32:42;15.20;99.90
14884;DHT22;7534;50.762;7.000;2023-04-24T11:35:19;15.30;99.90
14884;DHT22;7534;50.762;7.000;2023-04-24T11:37:54;15.30;99.90
14884;DHT22;7534;50.762;7.000;2023-04-24T11:40:22;15.50;99.90
14884;DHT22;7534;50.762;7.000;2023-04-24T11:42:50;15.20;99.90
14884;DHT22;7534;50.762;7.000;2023-04-24T11:45:21;14.50;99.90
14884;DHT22;7534;50.762;7.000;2023-04-24T11:47:49;14.10;99.90
14884;DHT22;7534;50.762;7.000;2023-04-24T14:21:04;15.40;99.90
14884;DHT22;7534;50.762;7.000;2023-04-24T14:23:33;15.50;99.90
14884;DHT22;7534;50.762;7.000;2023-04-24T14:25:59;15.60;99.90
14884;DHT22;7534;50.762;7.000;2023-04-24T14:28:25;15.70;99.90
14884;DHT22;7534;50.762;7.000;2023-04-24T14:30:54;15.90;99.90
14884;DHT22;7534;50.762;7.000;2023-04-24T14:33:19;16.00;99.90
14884;DHT22;7534;50.762;7.000;2023-04-24T14:35:46;16.20;99.90
14884;DHT22;7534;50.762;7.000;2023-04-24T14:38:11;16.50;99.90
14884;DHT22;7534;50.762;7.000;2023-04-24T14:40:37;16.30;99.90
14884;DHT22;7534;50.762;7.000;2023-04-24T14:43:03;15.90;99.90
14884;DHT22;7534;50.762;7.000;2023-04-24T14:45:29;15.70;99.90
14884;DHT22;7534;50.762;7.000;2023-04-24T14:47:55;15.50;99.90
14884;DHT22;7534;50.762;7.000;2023-04-24T14:50:22;15.40;99.90
14884;DHT22;7534;50.762;7.000;2023-04-24T14:52:48;15.40;99.90
14884;DHT22;7534;50.762;7.000;2023-04-24T14:55:15;15.40;99.90
14884;DHT22;7534;50.762;7.000;2023-04-24T14:57:42;15.40;99.90
14884;DHT22;7534;50.762;7.000;2023-04-24T15:00:13;15.70;99.90
14884;DHT22;7534;50.762;7.000;2023-04-24T15:02:40;16.30;99.90
14884;DHT22;7534;50.762;7.000;2023-04-24T15:05:07;16.30;99.90
14884;DHT22;7534;50.762;7.000;2023-04-24T15:07:33;16.30;99.90
14884;DHT22;7534;50.762;7.000;2023-04-24T15:10:01;16.30;99.90
14884;DHT22;7534;50.762;7.000;2023-04-24T15:12:27;16.40;99.50
14884;DHT22;7534;50.762;7.000;2023-04-24T15:14:54;16.10;99.20
14884;DHT22;7534;50.762;7.000;2023-04-24T15:17:30;15.80;99.60
14884;DHT22;7534;50.762;7.000;2023-04-24T15:19:56;15.40;99.90
14884;DHT22;7534;50.762;7.000;2023-04-24T15:22:22;15.50;99.90
14884;DHT22;7534;50.762;7.000;2023-04-24T15:24:47;15.70;99.90
14884;DHT22;7534;50.762;7.000;2023-04-24T15:27:13;15.90;99.90
14884;DHT22;7534;50.762;7.000;2023-04-24T15:29:39;15.90;99.70
14884;DHT22;7534;50.762;7.000;2023-04-24T15:32:05;15.90;99.90
14884;DHT22;7534;50.762;7.000;2023-04-24T15:34:30;15.90;99.90
14884;DHT22;7534;50.762;7.000;2023-04-24T15:36:57;15.90;99.10
14884;DHT22;7534;50.762;7.000;2023-04-24T15:39:24;16.10;99.90
14884;DHT22;7534;50.762;7.000;2023-04-24T15:41:53;16.40;99.50
14884;DHT22;7534;50.762;7.000;2023-04-24T15:44:20;16.40;99.90
14884;DHT22;7534;50.762;7.000;2023-04-24T15:46:47;16.80;99.00
14884;DHT22;7534;50.762;7.000;2023-04-24T15:49:13;16.60;99.50
14884;DHT22;7534;50.762;7.000;2023-04-24T15:51:39;16.60;98.60
14884;DHT22;7534;50.762;7.000;2023-04-24T15:54:05;16.70;98.70
14884;DHT22;7534;50.762;7.000;2023-04-24T15:56:31;16.30;98.30
14884;DHT22;7534;50.762;7.000;2023-04-24T16:01:23;15.90;99.90
14884;DHT22;7534;50.762;7.000;2023-04-24T16:03:49;16.10;99.90
14884;DHT22;7534;50.762;7.000;2023-04-24T16:06:15;15.90;99.90
14884;DHT22;7534;50.762;7.000;2023-04-24T16:08:41;16.00;99.90
14884;DHT22;7534;50.762;7.000;2023-04-24T16:11:06;16.10;99.90
14884;DHT22;7534;50.762;7.000;2023-04-24T16:13:32;16.10;99.90
14884;DHT22;7534;50.762;7.000;2023-04-24T16:15:58;15.90;99.90
14884;DHT22;7534;50.762;7.000;2023-04-24T16:18:25;15.80;99.90
14884;DHT22;7534;50.762;7.000;2023-04-24T16:20:50;15.80;99.90
14884;DHT22;7534;50.762;7.000;2023-04-24T16:23:16;15.40;99.90
14884;DHT22;7534;50.762;7.000;2023-04-24T16:25:42;15.40;99.90
14884;DHT22;7534;50.762;7.000;2023-04-24T16:28:08;15.40;99.90
14884;DHT22;7534;50.762;7.000;2023-04-24T21:00:17;10.90;99.90
14884;DHT22;7534;50.762;7.000;2023-04-24T21:02:43;10.90;99.90
14884;DHT22;7534;50.762;7.000;2023-04-24T21:05:10;10.80;99.90
14884;DHT22;7534;50.762;7.000;2023-04-24T21:07:35;10.60;99.90
14884;DHT22;7534;50.762;7.000;2023-04-24T21:10:01;10.50;99.90
14884;DHT22;7534;50.762;7.000;2023-04-24T21:12:27;10.50;99.90
14884;DHT22;7534;50.762;7.000;2023-04-24T21:14:52;10.50;99.90
14884;DHT22;7534;50.762;7.000;2023-04-24T21:17:18;10.50;99.90
14884;DHT22;7534;50.762;7.000;2023-04-24T21:19:44;10.40;99.90
14884;DHT22;7534;50.762;7.000;2023-04-24T21:22:09;10.40;99.90
14884;DHT22;7534;50.762;7.000;2023-04-24T21:24:35;10.30;99.90
14884;DHT22;7534;50.762;7.000;2023-04-24T21:27:01;10.30;99.90
14884;DHT22;7534;50.762;7.000;2023-04-24T21:29:27;10.30;99.90
14884;DHT22;7534;50.762;7.000;2023-04-24T21:31:53;10.20;99.90
14884;DHT22;7534;50.762;7.000;2023-04-24T21:34:19;10.20;99.90
14884;DHT22;7534;50.762;7.000;2023-04-24T21:36:45;10.20;99.90
14884;DHT22;7534;50.762;7.000;2023-04-24T21:39:12;10.20;99.90
14884;DHT22;7534;50.762;7.000;2023-04-24T21:41:38;10.00;99.90
14884;DHT22;7534;50.762;7.000;2023-04-24T21:44:04;9.80;99.90
14884;DHT22;7534;50.762;7.000;2023-04-24T21:46:30;9.70;99.90
14884;DHT22;7534;50.762;7.000;2023-04-24T21:48:56;9.60;99.90
14884;DHT22;7534;50.762;7.000;2023-04-24T21:51:22;9.60;99.90
14884;DHT22;7534;50.762;7.000;2023-04-24T21:53:47;9.50;99.90
14884;DHT22;7534;50.762;7.000;2023-04-24T21:56:14;9.40;99.90
14884;DHT22;7534;50.762;7.000;2023-04-24T21:58:40;9.20;99.90
14884;DHT22;7534;50.762;7.000;2023-04-24T22:01:07;9.20;99.90
14884;DHT22;7534;50.762;7.000;2023-04-24T22:03:33;9.20;99.90
14884;DHT22;7534;50.762;7.000;2023-04-24T22:06:00;9.20;99.90
14884;DHT22;7534;50.762;7.000;2023-04-24T22:08:26;9.10;99.90
14884;DHT22;7534;50.762;7.000;2023-04-24T22:10:51;9.00;99.90
14884;DHT22;7534;50.762;7.000;2023-04-24T22:13:18;9.00;99.90
14884;DHT22;7534;50.762;7.000;2023-04-24T22:15:44;9.00;99.90
14884;DHT22;7534;50.762;7.000;2023-04-24T22:18:10;8.90;99.90
14884;DHT22;7534;50.762;7.000;2023-04-24T22:20:37;8.90;99.90
14884;DHT22;7534;50.762;7.000;2023-04-24T22:23:05;8.80;99.90
14884;DHT22;7534;50.762;7.000;2023-04-24T22:25:30;8.80;99.90
14884;DHT22;7534;50.762;7.000;2023-04-24T22:27:56;8.80;99.90
14884;DHT22;7534;50.762;7.000;2023-04-24T22:30:22;8.80;99.90
14884;DHT22;7534;50.762;7.000;2023-04-24T22:32:47;8.70;99.90
14884;DHT22;7534;50.762;7.000;2023-04-24T22:35:13;8.70;99.90
14884;DHT22;7534;50.762;7.000;2023-04-24T22:37:39;8.60;99.90
14884;DHT22;7534;50.762;7.000;2023-04-24T22:40:05;8.60;99.90
14884;DHT22;7534;50.762;7.000;2023-04-24T22:42:32;8.70;99.90
14884;DHT22;7534;50.762;7.000;2023-04-24T22:44:59;8.70;99.90
14884;DHT22;7534;50.762;7.000;2023-04-24T22:47:25;8.80;99.90
14884;DHT22;7534;50.762;7.000;2023-04-24T22:49:51;8.80;99.90
14884;DHT22;7534;50.762;7.000;2023-04-24T22:52:18;8.80;99.90
14884;DHT22;7534;50.762;7.000;2023-04-24T22:54:45;8.80;99.90
14884;DHT22;7534;50.762;7.000;2023-04-24T22:57:11;8.90;99.90
14884;DHT22;7534;50.762;7.000;2023-04-24T22:59:37;8.90;99.90
14884;DHT22;7534;50.762;7.000;2023-04-24T23:02:03;9.00;99.90
14884;DHT22;7534;50.762;7.000;2023-04-24T23:04:29;9.00;99.90
14884;DHT22;7534;50.762;7.000;2023-04-24T23:06:55;9.20;99.90
14884;DHT22;7534;50.762;7.000;2023-04-24T23:09:21;9.20;99.90
14884;DHT22;7534;50.762;7.000;2023-04-24T23:11:46;9.10;99.90
14884;DHT22;7534;50.762;7.000;2023-04-24T23:14:12;9.10;99.90
14884;DHT22;7534;50.762;7.000;2023-04-24T23:16:38;9.20;99.90